Time;durP1;ratioP1;P1;durP2;ratioP2;P2;SDS_P1;SDS_P2;PMS_P1;PMS_P2;Temp;Humidity;BMP_temperature;BMP_pressure;BME280_temperature;BME280_humidity;BME280_pressure;Samples;Min_cycle;Max_cycle;Signal;HPM_P1;HPM_P2
2023/01/17 00:02:25;;;;;;;0.80;0.80;;;4.40;73.20;;;3.10;62.36;92181.81;5060199;28;20272;-34
2023/01/17 00:10:26;;;;;;;0.70;0.70;;;4.40;73.40;;;3.10;62.00;92197.34;4993137;28;20237;-34
2023/01/17 00:12:57;;;;;;;0.70;0.70;;;4.30;73.30;;;3.11;62.09;92205.88;4992921;28;20186;-34
2023/01/17 00:15:27;;;;;;;0.70;0.70;;;4.30;73.40;;;3.10;61.93;92204.31;4993422;28;20667;-34
2023/01/17 00:17:54;;;;;;;0.80;0.80;;;4.40;74.30;;;3.10;62.17;92212.06;4993057;28;20277;-34
2023/01/17 00:26:01;;;;;;;0.70;0.70;;;4.30;73.40;;;3.04;61.68;92224.09;4993004;28;20194;-34
2023/01/17 00:26:26;;;;;;;0.80;0.80;;;4.30;73.20;;;2.99;61.55;92229.09;4992655;28;20241;-34
2023/01/17 01:33:37;;;;;;;0.70;0.70;;;3.60;73.40;;;2.40;62.54;92229.31;4992240;28;20244;-34
2023/01/17 01:36:07;;;;;;;0.80;0.80;;;3.60;73.60;;;2.43;62.23;92231.50;4992090;28;20202;-34
2023/01/17 01:38:34;;;;;;;0.70;0.70;;;3.60;73.70;;;2.45;62.31;92233.84;5058405;28;20199;-34
2023/01/17 01:41:02;;;;;;;0.80;0.80;;;3.60;73.70;;;2.48;62.46;92234.22;4991969;28;20637;-34
2023/01/17 01:43:43;;;;;;;0.80;0.80;;;3.60;73.80;;;2.53;62.43;92238.78;4991829;28;20252;-34
2023/01/17 01:46:35;;;;;;;0.70;0.70;;;3.60;74.00;;;2.55;62.35;92242.75;4992283;28;20206;-34
2023/01/17 01:49:23;;;;;;;0.70;0.70;;;3.70;74.00;;;2.60;62.24;92243.91;4992229;28;20499;-34
2023/01/17 01:51:57;;;;;;;0.70;0.70;;;3.70;73.90;;;2.65;62.24;92237.13;4993514;28;20265;-34
2023/01/17 01:54:33;;;;;;;0.75;0.75;;;3.70;74.00;;;2.71;62.32;92238.88;4995132;28;20186;-34
2023/01/17 01:57:05;;;;;;;0.80;0.80;;;3.80;74.90;;;2.78;62.28;92235.44;5062679;28;20511;-34
2023/01/17 01:59:33;;;;;;;0.70;0.70;;;3.80;74.00;;;2.82;62.18;92228.81;4995386;28;20205;-34
2023/01/17 02:02:01;;;;;;;0.80;0.80;;;3.90;74.00;;;2.85;62.00;92231.00;4995040;28;20201;-34
2023/01/17 02:04:28;;;;;;;0.90;0.90;;;3.90;73.90;;;2.87;62.21;92229.78;4994903;28;20209;-34
2023/01/17 02:07:05;;;;;;;0.80;0.80;;;3.90;73.90;;;2.88;61.93;92228.78;5062218;28;20194;-34
2023/01/17 02:09:33;;;;;;;0.80;0.80;;;3.90;74.00;;;2.90;62.14;92225.97;4994949;28;20175;-34
2023/01/17 02:12:01;;;;;;;0.77;0.77;;;4.00;74.00;;;2.93;62.21;92224.75;4994890;28;20209;-34
2023/01/17 02:14:29;;;;;;;0.80;0.80;;;4.00;73.90;;;2.95;61.87;92226.13;4994654;28;20202;-34
2023/01/17 02:17:17;;;;;;;0.70;0.70;;;4.00;73.90;;;2.98;61.96;92228.31;5062217;28;20283;-34
2023/01/17 02:20:21;;;;;;;0.70;0.70;;;4.00;73.80;;;3.00;61.59;92228.09;4995111;28;20175;-34
2023/01/17 02:23:06;;;;;;;0.80;0.80;;;4.00;73.80;;;3.00;62.03;92221.13;4994532;28;20544;-34
2023/01/17 02:25:52;;;;;;;0.80;0.80;;;4.10;73.70;;;3.01;61.92;92220.09;4994551;28;20665;-34
2023/01/17 02:28:57;;;;;;;0.70;0.70;;;4.10;73.60;;;3.04;61.81;92217.09;4994693;28;20712;-34
2023/01/17 02:31:46;;;;;;;0.80;0.80;;;4.10;73.60;;;3.08;61.11;92211.50;4994522;28;20217;-34
2023/01/17 02:34:28;;;;;;;0.70;0.70;;;4.10;73.20;;;3.15;61.31;92207.84;5061749;28;20192;-34
2023/01/17 02:37:08;;;;;;;0.70;0.70;;;4.20;73.50;;;3.20;61.44;92202.03;5061755;28;20187;-34
2023/01/17 02:39:57;;;;;;;0.70;0.70;;;4.20;73.50;;;3.23;61.00;92206.00;4994684;28;20262;-35
2023/01/17 02:42:33;;;;;;;0.80;0.80;;;4.20;73.40;;;3.22;61.39;92212.94;4994564;28;20192;-34
2023/01/17 02:45:02;;;;;;;0.80;0.80;;;4.30;73.40;;;3.20;61.46;92209.81;5062287;28;20196;-34
2023/01/17 02:47:30;;;;;;;0.70;0.70;;;4.30;73.40;;;3.19;61.37;92215.97;4994349;28;20201;-34
2023/01/17 02:50:13;;;;;;;0.73;0.73;;;4.30;73.30;;;3.17;61.12;92218.00;4977320;28;20285;-34
2023/01/17 02:53:20;;;;;;;0.70;0.70;;;4.30;73.20;;;3.15;61.28;92228.56;5061408;28;20198;-34
2023/01/17 02:56:04;;;;;;;0.80;0.80;;;4.30;73.00;;;3.12;61.20;92221.22;4994718;28;20197;-34
2023/01/17 02:58:43;;;;;;;0.70;0.70;;;4.30;73.00;;;3.11;61.08;92224.78;5061751;28;20186;-34
2023/01/17 03:01:38;;;;;;;0.80;0.80;;;4.30;72.90;;;3.10;60.96;92233.59;4994519;28;20209;-34
2023/01/17 03:04:26;;;;;;;0.80;0.80;;;4.30;72.90;;;3.09;60.87;92232.00;4994084;28;20187;-34
2023/01/17 03:07:02;;;;;;;0.80;0.80;;;4.30;72.80;;;3.12;60.79;92235.97;4994356;28;20186;-34
2023/01/17 03:09:30;;;;;;;0.70;0.70;;;4.30;72.70;;;3.17;60.90;92238.72;4994112;28;20522;-34
2023/01/17 03:11:58;;;;;;;0.70;0.70;;;4.30;72.80;;;3.18;60.93;92237.72;5061055;28;20210;-34
2023/01/17 03:14:29;;;;;;;0.80;0.80;;;4.30;72.70;;;3.23;60.62;92234.47;4993969;28;20191;-34
2023/01/17 03:16:57;;;;;;;0.70;0.70;;;4.30;72.60;;;3.24;59.93;92246.44;5061034;28;20182;-34
2023/01/17 03:19:24;;;;;;;0.60;0.60;;;4.30;72.30;;;3.27;59.68;92243.41;4993989;28;20251;-34
2023/01/17 03:21:51;;;;;;;0.80;0.80;;;4.30;72.00;;;3.32;59.96;92243.56;5061123;28;20209;-34
2023/01/17 03:24:18;;;;;;;0.80;0.80;;;4.30;72.10;;;3.34;60.14;92244.13;4993815;28;20206;-34
2023/01/17 03:26:46;;;;;;;0.70;0.70;;;4.30;71.90;;;3.35;59.33;92248.31;4993669;28;20234;-34
2023/01/17 03:29:15;;;;;;;0.70;0.70;;;4.40;71.90;;;3.37;59.42;92251.50;4993719;28;20297;-34
2023/01/17 03:31:42;;;;;;;0.70;0.70;;;4.40;71.90;;;3.38;58.81;92258.25;4993618;28;20240;-34
2023/01/17 03:34:09;;;;;;;0.80;0.80;;;4.40;71.90;;;3.42;57.96;92261.19;4993483;28;20200;-34
2023/01/17 03:36:37;;;;;;;0.70;0.70;;;4.40;71.40;;;3.46;58.41;92249.41;4993701;28;20244;-34
2023/01/17 03:39:04;;;;;;;0.80;0.80;;;4.40;71.90;;;3.52;58.24;92256.34;4993664;28;20198;-34
2023/01/17 03:41:31;;;;;;;0.70;0.70;;;4.40;72.80;;;3.53;58.18;92258.69;4993567;28;20198;-34
2023/01/17 03:43:59;;;;;;;0.80;0.80;;;4.50;72.00;;;3.55;57.60;92260.28;4993624;28;20203;-34
2023/01/17 03:46:28;;;;;;;0.70;0.70;;;4.50;71.00;;;3.56;58.00;92260.06;4993475;28;20565;-34
2023/01/17 03:48:55;;;;;;;0.70;0.70;;;4.60;71.50;;;3.55;57.50;92266.25;4993672;28;20221;-34
2023/01/17 03:51:22;;;;;;;0.70;0.70;;;4.60;71.30;;;3.58;58.22;92260.66;5060265;28;20214;-34
2023/01/17 03:53:50;;;;;;;0.70;0.70;;;4.60;71.30;;;3.57;57.91;92259.06;4993464;28;20601;-34
2023/01/17 03:56:17;;;;;;;0.70;0.70;;;4.60;71.30;;;3.56;58.09;92260.06;4993731;28;20194;-34
2023/01/17 03:58:45;;;;;;;0.70;0.70;;;4.60;71.30;;;3.51;57.78;92255.53;4993392;28;20193;-34
2023/01/17 04:01:12;;;;;;;0.80;0.80;;;4.60;71.20;;;3.46;58.20;92254.59;4993265;28;20190;-34
2023/01/17 04:03:39;;;;;;;0.80;0.80;;;4.60;70.90;;;3.44;58.24;92249.63;4993120;28;20271;-34
2023/01/17 04:06:06;;;;;;;0.80;0.80;;;4.60;71.10;;;3.41;58.01;92246.69;4993214;28;20216;-34
2023/01/17 04:08:33;;;;;;;0.70;0.70;;;4.50;71.00;;;3.39;58.07;92243.50;4993197;28;20205;-34
2023/01/17 04:11:00;;;;;;;0.80;0.80;;;4.50;71.00;;;3.31;58.06;92245.34;4993052;28;20214;-34
2023/01/17 04:13:27;;;;;;;0.70;0.70;;;4.50;70.90;;;3.31;57.97;92249.75;4992461;28;20202;-34
2023/01/17 04:15:55;;;;;;;0.80;0.80;;;4.40;70.90;;;3.30;58.32;92250.75;4993088;28;20221;-34
2023/01/17 04:18:23;;;;;;;0.70;0.70;;;4.40;71.00;;;3.26;58.07;92254.75;4993000;28;20195;-34
2023/01/17 04:20:51;;;;;;;0.70;0.70;;;4.40;71.10;;;3.22;58.13;92258.78;4992987;28;20190;-34
2023/01/17 04:23:18;;;;;;;0.80;0.80;;;4.40;71.10;;;3.18;58.18;92261.00;4993242;28;20276;-34
2023/01/17 04:25:45;;;;;;;0.80;0.80;;;4.40;71.10;;;3.12;58.26;92254.09;5059634;28;20316;-34
2023/01/17 04:28:12;;;;;;;0.77;0.77;;;4.30;71.00;;;3.11;58.21;92255.09;5060435;28;20198;-34
2023/01/17 04:30:39;;;;;;;0.80;0.80;;;4.30;71.10;;;3.12;58.45;92248.91;4992755;28;20253;-34
2023/01/17 04:33:06;;;;;;;0.80;0.80;;;4.30;71.20;;;3.10;58.47;92253.50;4993125;28;20265;-34
2023/01/17 04:35:33;;;;;;;0.88;0.88;;;4.30;71.10;;;3.07;58.32;92253.94;4993124;28;20186;-34
2023/01/17 04:38:01;;;;;;;0.70;0.70;;;4.30;71.10;;;3.04;58.12;92257.75;4992862;28;20692;-34
2023/01/17 04:40:28;;;;;;;0.90;0.90;;;4.20;71.10;;;3.00;58.34;92257.38;4992870;28;20217;-34
2023/01/17 04:42:56;;;;;;;0.70;0.70;;;4.20;71.10;;;2.97;58.38;92252.63;4992791;28;20194;-34
2023/01/17 04:45:24;;;;;;;0.70;0.70;;;4.20;71.10;;;2.96;58.39;92258.00;4975646;28;20528;-34
2023/01/17 04:47:51;;;;;;;0.80;0.80;;;4.10;71.20;;;2.95;58.70;92264.19;4992759;28;20226;-34
2023/01/17 04:50:18;;;;;;;0.80;0.80;;;4.10;71.50;;;2.95;58.39;92259.78;4992951;28;20206;-34
2023/01/17 04:52:45;;;;;;;0.82;0.82;;;4.10;71.40;;;2.94;58.27;92268.59;4992800;28;20652;-34
2023/01/17 04:55:13;;;;;;;0.80;0.80;;;4.00;71.30;;;2.94;58.28;92275.53;4992505;28;20192;-34
2023/01/17 04:57:39;;;;;;;0.70;0.70;;;4.00;71.40;;;2.96;58.12;92283.91;4992546;28;20190;-34
2023/01/17 05:00:10;;;;;;;0.70;0.70;;;4.00;71.30;;;2.92;58.21;92277.53;4992466;28;20201;-34
2023/01/17 05:02:37;;;;;;;0.70;0.70;;;4.00;71.20;;;2.94;58.21;92291.06;4992624;28;20205;-34
2023/01/17 05:05:06;;;;;;;0.80;0.80;;;4.00;71.40;;;2.95;58.39;92290.84;4992272;28;20263;-34
2023/01/17 05:07:33;;;;;;;0.70;0.70;;;4.00;71.40;;;2.92;58.15;92286.13;5059414;28;20285;-34
2023/01/17 05:10:03;;;;;;;0.70;0.70;;;4.00;71.20;;;2.89;57.83;92289.09;4992503;28;20285;-34
2023/01/17 05:12:30;;;;;;;0.70;0.70;;;4.00;71.20;;;2.88;58.14;92290.09;4992596;28;20246;-34
2023/01/17 05:14:57;;;;;;;0.70;0.70;;;4.00;71.20;;;2.87;57.93;92291.91;4992264;28;20326;-34
2023/01/17 05:17:24;;;;;;;0.70;0.70;;;4.00;71.20;;;2.87;58.22;92297.09;4992478;28;20214;-34
2023/01/17 05:19:51;;;;;;;0.80;0.80;;;3.90;71.00;;;2.86;58.31;92299.91;4992587;28;20195;-34
2023/01/17 05:22:18;;;;;;;0.80;0.80;;;3.90;71.10;;;2.82;58.25;92309.88;4992196;28;20213;-34
2023/01/17 05:24:46;;;;;;;0.70;0.70;;;3.90;71.10;;;2.79;58.28;92305.09;4992080;28;20226;-34
2023/01/17 05:27:14;;;;;;;0.70;0.70;;;3.90;71.10;;;2.76;58.23;92304.72;5062942;28;20197;-34
2023/01/17 05:29:41;;;;;;;0.70;0.70;;;3.90;71.00;;;2.75;58.09;92313.47;5063377;28;20271;-34
2023/01/17 05:32:08;;;;;;;0.80;0.80;;;3.90;71.00;;;2.70;58.29;92306.38;4995598;28;20701;-34
2023/01/17 05:34:35;;;;;;;0.80;0.80;;;3.90;71.00;;;2.65;58.31;92308.75;4995594;28;20501;-34
2023/01/17 05:37:02;;;;;;;0.70;0.70;;;3.90;71.00;;;2.64;58.45;92307.19;5063398;28;20517;-34
2023/01/17 05:39:29;;;;;;;0.70;0.70;;;3.80;71.10;;;2.62;58.46;92317.75;4995495;28;20502;-34
2023/01/17 05:41:58;;;;;;;0.80;0.80;;;3.80;71.20;;;2.60;58.58;92324.94;4995747;28;20217;-34
2023/01/17 05:44:26;;;;;;;0.70;0.70;;;3.80;71.40;;;2.60;58.33;92331.88;5061959;28;20194;-34
2023/01/17 05:46:54;;;;;;;0.70;0.70;;;3.70;71.50;;;2.60;58.54;92343.06;4995353;28;20700;-34
2023/01/17 05:49:22;;;;;;;0.70;0.70;;;3.70;71.50;;;2.62;58.93;92340.25;4995387;28;20208;-38
2023/01/17 05:51:49;;;;;;;0.70;0.70;;;3.70;71.50;;;2.66;58.73;92337.03;5062482;28;20217;-38
2023/01/17 05:54:18;;;;;;;0.80;0.80;;;3.70;71.40;;;2.72;58.38;92338.00;4995066;28;20195;-38
2023/01/17 05:56:45;;;;;;;0.80;0.80;;;3.70;71.50;;;2.77;58.88;92334.78;4995469;28;20629;-39
2023/01/17 05:59:12;;;;;;;0.77;0.77;;;3.70;71.50;;;2.78;58.41;92334.56;4995124;28;20194;-37
2023/01/17 06:01:40;;;;;;;0.80;0.80;;;3.80;71.60;;;2.78;58.44;92333.78;4995011;28;20281;-37
2023/01/17 06:04:07;;;;;;;0.70;0.70;;;3.80;71.60;;;2.79;58.60;92337.97;4994926;28;20256;-40
2023/01/17 06:06:34;;;;;;;0.80;0.80;;;3.90;71.60;;;2.77;58.46;92340.78;4995468;28;20198;-40
2023/01/17 06:09:02;;;;;;;0.80;0.80;;;3.80;71.50;;;2.75;58.58;92341.97;4995042;28;20202;-38
2023/01/17 06:11:29;;;;;;;0.80;0.80;;;3.90;71.60;;;2.74;58.79;92348.94;5045841;28;20232;-39
2023/01/17 06:13:56;;;;;;;0.80;0.80;;;3.90;71.60;;;2.72;58.35;92348.34;4994932;28;20190;-39
2023/01/17 06:16:23;;;;;;;0.80;0.80;;;3.90;71.60;;;2.69;58.70;92354.72;4994893;28;20194;-37
2023/01/17 06:18:50;;;;;;;0.90;0.90;;;3.80;71.50;;;2.68;58.51;92353.13;5062023;28;20579;-39
2023/01/17 06:21:18;;;;;;;0.80;0.80;;;3.90;71.60;;;2.64;58.53;92346.81;4994918;28;20198;-39
2023/01/17 06:23:45;;;;;;;0.90;0.90;;;3.80;72.10;;;2.58;58.28;92352.81;4994512;28;20205;-38
2023/01/17 06:26:12;;;;;;;0.80;0.80;;;3.80;71.00;;;2.50;58.17;92351.25;4994522;28;20625;-35
2023/01/17 06:28:40;;;;;;;0.70;0.70;;;3.80;71.00;;;2.44;58.55;92346.09;4994789;28;20285;-39
2023/01/17 06:31:08;;;;;;;0.80;0.80;;;3.80;71.00;;;2.37;58.55;92356.47;4994990;28;20226;-40
2023/01/17 06:33:35;;;;;;;0.80;0.80;;;3.70;70.90;;;2.25;58.26;92369.25;4994807;28;20252;-38
2023/01/17 06:36:03;;;;;;;0.70;0.70;;;3.70;71.80;;;2.17;58.72;92374.63;4994353;28;20194;-40
2023/01/17 06:38:30;;;;;;;0.80;0.80;;;3.60;71.00;;;2.11;58.85;92367.69;4993783;28;20194;-38
2023/01/17 06:40:59;;;;;;;0.80;0.80;;;3.50;70.90;;;2.04;58.91;92367.72;4994534;28;20205;-38
2023/01/17 06:43:27;;;;;;;0.73;0.73;;;3.50;71.10;;;1.96;59.11;92383.44;4994602;28;20281;-39
2023/01/17 06:45:55;;;;;;;0.77;0.77;;;3.40;71.30;;;1.88;59.35;92394.78;5061387;28;20202;-38
2023/01/17 06:48:22;;;;;;;0.80;0.80;;;3.40;71.20;;;1.81;59.84;92402.53;4994334;28;20202;-40
2023/01/17 06:50:49;;;;;;;0.80;0.80;;;3.30;71.20;;;1.77;59.59;92411.69;4994246;28;20363;-38
2023/01/17 06:53:16;;;;;;;0.90;0.90;;;3.30;71.20;;;1.72;59.73;92406.31;4994297;28;20186;-39
2023/01/17 06:55:43;;;;;;;0.88;0.88;;;3.10;71.00;;;1.67;59.81;92411.28;4994190;28;20201;-39
2023/01/17 06:58:10;;;;;;;0.80;0.80;;;3.10;71.00;;;1.63;59.76;92420.44;4994211;28;20190;-38
2023/01/17 07:00:37;;;;;;;0.90;0.90;;;3.10;71.10;;;1.58;59.92;92427.00;4994664;28;20547;-38
2023/01/17 07:03:31;;;;;;;0.80;0.80;;;3.00;71.00;;;1.55;59.58;92435.16;4994416;28;20576;-39
2023/01/17 07:06:01;;;;;;;0.80;0.80;;;3.00;71.10;;;1.52;59.63;92439.91;4994004;28;20201;-40
2023/01/17 07:08:28;;;;;;;0.80;0.80;;;2.90;71.00;;;1.48;59.87;92439.50;4994139;28;20194;-40
2023/01/17 07:11:04;;;;;;;0.70;0.70;;;2.80;71.00;;;1.45;59.90;92442.47;4993905;28;20210;-37
2023/01/17 07:13:34;;;;;;;0.70;0.70;;;2.80;71.40;;;1.43;60.54;92450.44;4994295;28;20209;-39
2023/01/17 07:16:04;;;;;;;0.70;0.70;;;2.80;71.70;;;1.46;60.43;92445.88;4993941;28;20210;-38
2023/01/17 07:18:33;;;;;;;0.70;0.70;;;2.70;71.90;;;1.50;60.22;92445.28;5061520;28;20198;-39
2023/01/17 07:21:00;;;;;;;0.70;0.70;;;2.70;71.90;;;1.54;60.12;92443.88;5060109;28;20194;-37
2023/01/17 07:23:27;;;;;;;0.80;0.80;;;2.70;71.90;;;1.53;60.36;92447.47;4994003;28;20244;-38
2023/01/17 07:25:57;;;;;;;0.70;0.70;;;2.70;71.80;;;1.55;60.70;92447.25;4993526;28;20313;-39
2023/01/17 07:28:26;;;;;;;0.70;0.70;;;2.70;72.10;;;1.59;60.36;92445.88;5060879;28;20189;-39
2023/01/17 07:30:54;;;;;;;0.70;0.70;;;2.70;72.10;;;1.60;60.30;92443.09;5060286;28;20221;-38
2023/01/17 07:33:21;;;;;;;0.75;0.75;;;2.80;72.10;;;1.61;60.27;92449.03;4993723;28;20201;-39
2023/01/17 07:35:48;;;;;;;0.80;0.80;;;2.80;72.10;;;1.62;60.60;92450.63;4993747;28;20207;-39
2023/01/17 07:38:18;;;;;;;0.70;0.70;;;2.80;72.10;;;1.61;60.43;92443.88;4993844;28;20198;-38
2023/01/17 07:40:45;;;;;;;0.80;0.80;;;2.80;72.20;;;1.63;60.43;92448.88;4993741;28;20294;-38
2023/01/17 07:43:12;;;;;;;0.80;0.80;;;2.80;72.20;;;1.64;60.22;92456.41;4993614;28;20205;-38
2023/01/17 07:45:49;;;;;;;0.80;0.80;;;2.80;72.20;;;1.63;60.43;92454.81;4993405;28;20217;-39
2023/01/17 07:48:19;;;;;;;0.70;0.70;;;2.90;72.20;;;1.66;60.44;92461.38;4994028;28;20186;-35
2023/01/17 07:50:56;;;;;;;0.80;0.80;;;2.80;72.20;;;1.67;60.27;92457.81;5060839;28;20195;-39
2023/01/17 07:53:26;;;;;;;0.70;0.70;;;2.90;72.30;;;1.68;60.58;92451.66;4993344;28;20292;-38
2023/01/17 07:55:54;;;;;;;0.90;0.90;;;2.90;72.20;;;1.70;60.50;92458.19;4993665;28;20259;-40
2023/01/17 07:58:21;;;;;;;0.70;0.70;;;2.90;72.20;;;1.72;60.43;92451.06;5060795;28;20210;-37
2023/01/17 08:00:49;;;;;;;0.73;0.73;;;2.90;72.20;;;1.75;60.69;92450.63;4993864;28;20214;-37
2023/01/17 08:03:17;;;;;;;0.70;0.70;;;3.00;72.30;;;1.80;60.92;92455.22;4993234;28;20197;-39
2023/01/17 08:05:54;;;;;;;0.80;0.80;;;3.00;72.50;;;1.87;60.68;92452.66;4993146;28;20198;-38
2023/01/17 08:08:21;;;;;;;0.70;0.70;;;3.00;72.60;;;1.98;60.62;92444.28;4993373;28;20198;-40
2023/01/17 08:10:50;;;;;;;0.80;0.80;;;3.00;72.70;;;2.11;60.74;92438.28;4993327;28;20198;-39
2023/01/17 08:13:17;;;;;;;0.90;0.90;;;3.10;72.80;;;2.25;60.90;92441.66;4993044;28;20218;-39
2023/01/17 08:15:48;;;;;;;0.80;0.80;;;3.20;73.00;;;2.37;60.75;92434.88;4992890;28;20214;-37
2023/01/17 08:18:16;;;;;;;0.80;0.80;;;3.30;73.00;;;2.44;60.32;92431.47;4993268;28;20190;-38
2023/01/17 08:20:43;;;;;;;0.80;0.80;;;3.30;72.90;;;2.49;60.19;92434.22;5059819;28;20190;-34
2023/01/17 08:23:11;;;;;;;0.80;0.80;;;3.40;72.80;;;2.51;59.94;92435.63;4992968;28;20598;-40
2023/01/17 08:25:39;;;;;;;0.80;0.80;;;3.50;72.70;;;2.53;60.30;92427.66;4992555;28;20685;-39
2023/01/17 08:28:06;;;;;;;0.70;0.70;;;3.50;72.60;;;2.55;60.25;92436.81;4993114;28;20271;-37
2023/01/17 08:30:35;;;;;;;0.80;0.80;;;3.50;72.50;;;2.58;60.17;92433.03;4993236;28;20291;-37
2023/01/17 08:33:02;;;;;;;0.80;0.80;;;3.60;72.60;;;2.66;60.12;92434.56;4993045;28;20267;-39
2023/01/17 08:35:29;;;;;;;0.75;0.75;;;3.60;72.70;;;2.70;60.27;92428.78;4992655;28;20190;-37
2023/01/17 08:37:58;;;;;;;0.70;0.70;;;3.60;72.70;;;2.78;60.41;92424.38;4992763;28;20190;-40
2023/01/17 08:40:25;;;;;;;0.80;0.80;;;3.70;72.80;;;2.86;60.59;92424.94;4992934;28;20511;-38
2023/01/17 08:42:58;;;;;;;0.80;0.80;;;3.70;72.90;;;2.97;60.27;92430.47;4992726;28;20641;-39
2023/01/17 08:45:27;;;;;;;0.80;0.80;;;3.80;73.10;;;3.07;60.43;92430.03;5059347;28;20243;-39
2023/01/17 08:47:56;;;;;;;0.80;0.80;;;3.80;73.10;;;3.15;60.41;92429.78;4992774;28;20190;-35
2023/01/17 08:50:24;;;;;;;0.80;0.80;;;3.90;73.20;;;3.25;60.21;92424.94;4992660;28;20204;-40
2023/01/17 08:52:58;;;;;;;0.80;0.80;;;4.00;73.20;;;3.35;60.17;92429.66;4993068;28;20214;-39
2023/01/17 08:55:27;;;;;;;0.70;0.70;;;4.00;74.00;;;3.39;59.70;92430.06;4992459;28;20251;-39
2023/01/17 08:57:56;;;;;;;0.80;0.80;;;4.10;72.90;;;3.47;60.03;92433.19;4992549;28;20261;-39
2023/01/17 09:00:23;;;;;;;0.70;0.70;;;4.20;73.00;;;3.56;59.85;92431.13;4994037;28;20220;-38
2023/01/17 09:02:51;;;;;;;0.70;0.70;;;4.30;73.10;;;3.67;60.25;92433.06;4996124;28;20197;-39
2023/01/17 09:05:19;;;;;;;0.70;0.70;;;4.40;73.20;;;3.80;60.09;92432.16;4995789;28;20198;-37
2023/01/17 09:07:46;;;;;;;0.70;0.70;;;4.50;73.30;;;3.91;60.32;92442.84;5063635;28;20202;-36
2023/01/17 09:10:13;;;;;;;0.70;0.70;;;4.60;73.40;;;3.98;60.18;92446.97;4995760;28;20649;-39
2023/01/17 09:12:40;;;;;;;0.88;0.88;;;4.70;73.30;;;4.07;60.06;92446.69;5063501;28;20399;-40
2023/01/17 09:15:08;;;;;;;0.80;0.80;;;4.80;73.40;;;4.18;60.01;92450.41;5063402;28;20213;-39
2023/01/17 09:17:35;;;;;;;0.70;0.70;;;5.00;73.40;;;4.30;59.84;92461.66;4996160;28;20187;-40
2023/01/17 09:20:03;;;;;;;0.70;0.70;;;5.00;73.40;;;4.41;59.67;92465.38;5063067;28;20190;-40
2023/01/17 09:22:30;;;;;;;0.70;0.70;;;5.10;73.20;;;4.52;59.62;92471.63;4996067;28;20198;-40
2023/01/17 09:24:57;;;;;;;0.88;0.88;;;5.20;73.10;;;4.60;59.32;92464.38;4995313;28;20237;-40
2023/01/17 09:27:24;;;;;;;0.70;0.70;;;5.40;72.70;;;4.63;58.32;92463.13;4995699;28;20186;-39
2023/01/17 09:29:51;;;;;;;0.80;0.80;;;5.50;72.70;;;4.72;58.27;92455.84;4995821;28;20224;-40
2023/01/17 09:32:18;;;;;;;0.70;0.70;;;5.60;72.80;;;4.84;58.59;92450.75;4995945;28;20728;-39
2023/01/17 09:34:46;;;;;;;0.70;0.70;;;5.60;72.80;;;4.93;58.46;92455.41;4995929;28;20225;-40
2023/01/17 09:37:13;;;;;;;0.80;0.80;;;5.70;72.80;;;5.03;58.56;92454.09;4995313;28;20633;-40
2023/01/17 09:39:40;;;;;;;0.70;0.70;;;5.80;72.70;;;5.09;58.32;92448.84;4995552;28;20198;-40
2023/01/17 09:42:28;;;;;;;0.70;0.70;;;5.90;72.60;;;5.15;57.82;92464.56;4995951;28;20190;-40
2023/01/17 09:44:55;;;;;;;0.70;0.70;;;5.90;72.20;;;5.18;57.68;92451.13;4995367;28;20621;-40
2023/01/17 09:47:41;;;;;;;0.70;0.70;;;6.00;72.00;;;5.21;57.17;92461.06;5062506;28;20564;-40
2023/01/17 09:50:30;;;;;;;0.60;0.60;;;6.00;71.60;;;5.24;57.61;92469.22;4994586;28;20197;-39
2023/01/17 09:53:04;;;;;;;0.70;0.70;;;6.00;71.50;;;5.26;57.34;92471.59;4995453;28;20233;-40
2023/01/17 09:55:43;;;;;;;0.80;0.80;;;6.10;71.70;;;5.29;57.13;92471.16;4995055;28;20247;-40
2023/01/17 09:58:40;;;;;;;0.75;0.75;;;6.10;71.40;;;5.32;57.25;92469.94;4995463;28;20175;-38
2023/01/17 10:02:03;;;;;;;0.70;0.70;;;6.10;71.50;;;5.35;57.07;92470.28;5062386;28;20186;-40
2023/01/17 10:05:15;;;;;;;0.80;0.80;;;6.10;71.30;;;5.37;57.00;92467.47;5047333;28;20661;-38
2023/01/17 10:08:09;;;;;;;0.70;0.70;;;6.20;71.10;;;5.38;56.33;92454.28;4995254;28;20198;-39
2023/01/17 10:10:47;;;;;;;0.60;0.60;;;6.20;71.00;;;5.41;55.99;92453.03;5062829;28;20209;-40
2023/01/17 10:13:43;;;;;;;0.70;0.70;;;6.20;70.90;;;5.41;55.74;92453.81;5028540;28;20673;-38
2023/01/17 10:17:04;;;;;;;0.80;0.80;;;6.30;70.50;;;5.50;56.33;92451.69;4995532;28;20186;-39
2023/01/17 10:19:53;;;;;;;0.80;0.80;;;6.30;70.90;;;5.58;56.49;92445.41;5047549;28;20209;-41
2023/01/17 10:22:32;;;;;;;0.70;0.70;;;6.40;71.00;;;5.55;54.46;92441.41;4995333;28;20524;-32
2023/01/17 10:25:03;;;;;;;0.73;0.73;;;6.40;70.20;;;5.63;55.07;92437.72;4995170;28;20264;-49
2023/01/17 10:27:36;;;;;;;0.70;0.70;;;6.40;70.20;;;5.69;55.56;92431.63;4994793;28;20204;-39
2023/01/17 10:30:31;;;;;;;0.70;0.70;;;6.50;70.40;;;5.78;55.84;92432.09;5060195;28;20243;-39
2023/01/17 10:33:08;;;;;;;0.60;0.60;;;6.50;70.20;;;5.82;55.00;92417.59;4994987;28;20256;-46
2023/01/17 10:35:58;;;;;;;0.60;0.60;;;6.50;70.00;;;5.85;54.49;92411.97;5061516;28;20247;-39
2023/01/17 10:38:33;;;;;;;0.70;0.70;;;6.60;69.80;;;5.85;53.46;92404.16;5061923;28;20195;-41
2023/01/17 10:41:39;;;;;;;0.82;0.82;;;6.70;69.30;;;5.89;53.67;92397.50;5062238;28;20185;-33
2023/01/17 10:44:18;;;;;;;0.70;0.70;;;6.70;69.40;;;5.94;54.09;92383.81;4994564;28;20598;-39
2023/01/17 10:47:09;;;;;;;0.70;0.70;;;6.70;69.60;;;5.99;54.67;92377.97;5061405;28;20175;-39
2023/01/17 10:49:47;;;;;;;0.70;0.70;;;6.70;69.40;;;6.05;54.44;92377.88;5061786;28;20281;-40
2023/01/17 10:52:54;;;;;;;0.70;0.70;;;6.70;69.30;;;6.10;54.69;92374.56;4994293;28;20210;-37
2023/01/17 10:55:49;;;;;;;0.80;0.80;;;6.80;69.40;;;6.17;54.69;92374.47;4996079;28;20217;-38
2023/01/17 10:58:16;;;;;;;0.70;0.70;;;6.80;69.40;;;6.21;54.19;92365.16;5061741;28;20305;-37
2023/01/17 11:00:51;;;;;;;0.70;0.70;;;6.90;69.50;;;6.26;54.43;92360.06;4994323;28;20621;-40
2023/01/17 11:03:19;;;;;;;0.65;0.65;;;6.90;69.40;;;6.31;54.57;92359.38;4994266;28;20626;-40
2023/01/17 11:06:21;;;;;;;0.70;0.70;;;7.00;69.70;;;6.36;54.97;92365.50;5045085;28;20531;-40
2023/01/17 11:08:53;;;;;;;0.70;0.70;;;7.00;69.40;;;6.42;54.57;92369.00;4994142;28;20227;-38
2023/01/17 11:11:30;;;;;;;0.60;0.60;;;7.10;69.60;;;6.48;54.82;92373.31;4994250;28;20174;-40
2023/01/17 11:14:06;;;;;;;0.65;0.65;;;7.10;69.60;;;6.51;54.52;92359.81;5061369;28;20209;-37
2023/01/17 11:16:34;;;;;;;0.80;0.80;;;7.20;69.50;;;6.59;54.40;92363.84;5061132;28;20190;-40
2023/01/17 11:19:11;;;;;;;0.70;0.70;;;7.20;69.60;;;6.62;54.21;92360.81;5060267;28;20194;-38
2023/01/17 11:21:39;;;;;;;0.70;0.70;;;7.20;69.30;;;6.66;53.93;92356.72;5061013;28;20182;-37
2023/01/17 11:24:18;;;;;;;0.70;0.70;;;7.30;69.50;;;6.70;54.15;92355.25;5061242;28;20206;-39
2023/01/17 11:26:48;;;;;;;0.70;0.70;;;7.40;69.20;;;6.74;54.10;92347.75;4993512;28;20324;-38
2023/01/17 11:29:35;;;;;;;0.60;0.60;;;7.40;69.20;;;6.77;53.58;92343.88;5060755;28;20633;-39
2023/01/17 11:32:21;;;;;;;0.80;0.80;;;7.50;69.00;;;6.82;53.54;92354.41;4993745;28;20220;-37
2023/01/17 11:35:33;;;;;;;0.70;0.70;;;7.50;69.00;;;6.91;53.14;92347.81;4993647;28;20656;-39
2023/01/17 11:38:32;;;;;;;0.80;0.80;;;7.60;68.80;;;7.15;54.59;92332.88;4996387;28;20218;-40
2023/01/17 11:41:20;;;;;;;0.70;0.70;;;7.80;69.50;;;7.44;54.98;92330.19;5026038;28;20669;-39
2023/01/17 11:43:55;;;;;;;0.70;0.70;;;8.10;70.10;;;7.80;56.48;92320.31;5054175;28;20178;-38
2023/01/17 11:46:24;;;;;;;0.60;0.60;;;8.50;71.50;;;8.15;56.22;92326.28;4993497;28;20273;-40
2023/01/17 11:48:58;;;;;;;0.65;0.65;;;9.10;71.80;;;8.57;57.14;92319.78;4993430;28;20201;-38
2023/01/17 11:51:30;;;;;;;0.60;0.60;;;9.80;72.00;;;9.03;59.30;92320.28;4993440;28;20185;-38
2023/01/17 11:54:30;;;;;;;0.60;0.60;;;10.60;71.70;;;9.60;59.97;92318.97;5060448;28;20206;-40
2023/01/17 11:56:59;;;;;;;0.60;0.60;;;11.70;70.90;;;10.09;60.37;92315.41;5058669;28;20184;-40
2023/01/17 11:59:33;;;;;;;0.50;0.50;;;12.50;71.00;;;10.61;59.55;92299.16;4993491;28;20219;-34
2023/01/17 12:02:36;;;;;;;0.70;0.70;;;13.40;70.50;;;11.14;57.69;92291.19;4993442;28;20177;-34
2023/01/17 12:05:22;;;;;;;0.60;0.60;;;14.20;68.20;;;11.54;56.33;92285.16;4995844;28;20205;-34
2023/01/17 12:07:56;;;;;;;0.50;0.50;;;15.00;66.90;;;11.92;55.96;92274.38;5060280;28;20613;-33
2023/01/17 12:10:37;;;;;;;0.60;0.60;;;15.60;65.90;;;12.27;55.44;92275.41;4993444;28;20189;-33
2023/01/17 12:17:03;;;;;;;0.40;0.40;;;16.40;63.40;;;12.85;53.44;92239.13;4993320;28;20190;-34